Time;durP1;ratioP1;P1;durP2;ratioP2;P2;SDS_P1;SDS_P2;PMS_P1;PMS_P2;Temp;Humidity;BMP_temperature;BMP_pressure;BME280_temperature;BME280_humidity;BME280_pressure;Samples;Min_cycle;Max_cycle;Signal;HPM_P1;HPM_P2
2022/01/09 00:01:55;;;;;;;0.70;0.70;;;;;;;7.23;53.09;94724.91;4984417;28;20243;-86
2022/01/09 00:04:22;;;;;;;0.60;0.60;;;;;;;7.19;53.65;94735.34;4980150;28;20230;-86
2022/01/09 00:06:51;;;;;;;0.60;0.60;;;;;;;7.14;54.32;94739.84;4985239;28;20234;-86
2022/01/09 00:09:18;;;;;;;0.70;0.70;;;;;;;6.98;56.29;94732.59;4978627;28;20213;-86
2022/01/09 00:11:45;;;;;;;0.60;0.60;;;;;;;6.89;57.53;94742.94;4991905;28;20216;-87
2022/01/09 00:14:12;;;;;;;0.60;0.60;;;;;;;6.87;57.22;94768.41;4986083;28;20295;-86
2022/01/09 00:16:39;;;;;;;0.60;0.60;;;;;;;6.89;57.07;94764.41;4984521;28;20276;-87
2022/01/09 00:19:06;;;;;;;0.70;0.70;;;;;;;6.79;56.56;94775.00;4984759;28;20211;-86
2022/01/09 00:21:33;;;;;;;0.70;0.70;;;;;;;6.73;56.05;94755.31;4985510;28;20303;-87
2022/01/09 00:24:02;;;;;;;0.80;0.60;;;;;;;6.76;57.41;94792.41;4988584;28;20222;-86
2022/01/09 00:26:29;;;;;;;0.90;0.60;;;;;;;6.73;57.34;94752.63;4987589;28;20208;-87
2022/01/09 00:28:56;;;;;;;1.43;0.80;;;;;;;6.68;58.32;94754.44;4982713;28;20605;-86
2022/01/09 00:31:23;;;;;;;0.67;0.67;;;;;;;6.54;59.59;94708.38;4981351;28;20275;-85
2022/01/09 00:33:50;;;;;;;1.33;0.77;;;;;;;6.41;59.80;94743.56;4986175;28;20240;-87
2022/01/09 00:36:17;;;;;;;1.13;0.90;;;;;;;6.36;59.11;94719.34;4982434;28;20214;-86
2022/01/09 00:38:44;;;;;;;1.07;0.80;;;;;;;6.27;60.37;94744.94;4983187;28;20205;-86
2022/01/09 00:41:13;;;;;;;0.70;0.70;;;;;;;6.14;61.87;94747.91;4976735;28;20275;-86
2022/01/09 00:43:40;;;;;;;1.10;0.77;;;;;;;6.10;64.72;94757.50;4982463;28;20275;-85
2022/01/09 00:46:07;;;;;;;0.60;0.60;;;;;;;6.05;65.79;94776.97;4993768;28;20204;-87
2022/01/09 00:48:34;;;;;;;0.70;0.70;;;;;;;5.97;65.19;94772.81;4983071;28;20295;-86
2022/01/09 00:51:01;;;;;;;0.63;0.63;;;;;;;5.90;66.46;94753.38;4984799;28;20208;-86
2022/01/09 00:53:28;;;;;;;0.70;0.70;;;;;;;5.82;70.00;94772.50;4983001;28;20215;-86
2022/01/09 00:55:55;;;;;;;1.00;0.90;;;;;;;5.75;71.38;94771.81;4978829;28;20259;-87
2022/01/09 00:58:24;;;;;;;0.80;0.80;;;;;;;5.72;71.82;94759.72;4983253;28;20212;-86
2022/01/09 01:00:51;;;;;;;0.63;0.63;;;;;;;5.64;71.39;94770.00;4983407;28;20216;-87
2022/01/09 01:03:18;;;;;;;0.73;0.70;;;;;;;5.67;71.55;94750.78;4994494;28;20240;-87
2022/01/09 01:05:45;;;;;;;0.60;0.60;;;;;;;5.64;69.61;94767.31;4976973;28;20220;-87
2022/01/09 01:08:12;;;;;;;0.70;0.70;;;;;;;5.63;68.56;94753.13;4982921;28;20259;-87
2022/01/09 01:10:40;;;;;;;0.50;0.50;;;;;;;5.71;66.50;94754.59;4997736;28;20215;-87
2022/01/09 01:13:07;;;;;;;0.77;0.77;;;;;;;5.82;63.29;94753.75;4981686;28;20235;-85
2022/01/09 01:15:35;;;;;;;0.70;0.70;;;;;;;5.87;63.37;94737.75;4983074;28;20307;-86
2022/01/09 01:18:03;;;;;;;0.97;0.80;;;;;;;5.80;62.53;94757.69;4977931;28;20303;-86
2022/01/09 01:20:31;;;;;;;0.70;0.70;;;;;;;5.92;61.69;94766.56;4982955;28;20223;-86
2022/01/09 01:22:59;;;;;;;1.43;0.70;;;;;;;5.94;60.07;94754.56;4976120;28;20228;-86
2022/01/09 01:25:26;;;;;;;0.70;0.70;;;;;;;6.03;59.21;94747.75;4978966;28;20223;-87
2022/01/09 01:27:54;;;;;;;0.60;0.60;;;;;;;6.05;58.31;94745.63;4980940;28;20312;-85
2022/01/09 01:30:21;;;;;;;0.70;0.70;;;;;;;6.08;58.90;94758.53;4981273;28;20318;-86
2022/01/09 01:32:51;;;;;;;0.73;0.70;;;;;;;6.11;56.55;94724.28;4983106;28;20220;-87
2022/01/09 01:35:18;;;;;;;1.43;1.00;;;;;;;6.13;57.13;94724.84;4976700;28;20299;-86
2022/01/09 01:37:45;;;;;;;0.93;0.80;;;;;;;6.06;56.46;94725.00;4982018;28;20291;-86
2022/01/09 01:40:16;;;;;;;1.13;0.80;;;;;;;6.18;55.32;94695.47;4983400;28;20212;-86
2022/01/09 01:42:44;;;;;;;0.70;0.70;;;;;;;6.23;53.71;94706.25;4998222;28;20227;-85
2022/01/09 01:45:12;;;;;;;0.63;0.63;;;;;;;6.28;54.11;94711.72;4979500;28;20227;-86
2022/01/09 01:47:40;;;;;;;0.60;0.60;;;;;;;6.37;53.31;94704.91;4992419;28;20204;-86
2022/01/09 01:50:13;;;;;;;2.17;0.80;;;;;;;6.31;53.63;94721.94;4980339;28;20212;-86
2022/01/09 01:52:43;;;;;;;0.83;0.73;;;;;;;6.23;54.02;94735.75;4980233;28;20228;-85
2022/01/09 01:55:14;;;;;;;0.70;0.70;;;;;;;6.16;56.19;94745.81;4982424;28;20212;-86
2022/01/09 01:57:44;;;;;;;0.70;0.70;;;;;;;6.10;56.78;94746.78;4983476;28;20212;-87
2022/01/09 02:00:14;;;;;;;1.73;0.70;;;;;;;6.18;55.66;94759.78;4979815;28;20212;-87
2022/01/09 02:02:41;;;;;;;1.10;0.83;;;;;;;6.14;56.29;94745.22;4982963;28;20212;-87
2022/01/09 02:05:11;;;;;;;0.80;0.80;;;;;;;6.15;55.50;94776.34;4972634;28;20224;-87
2022/01/09 02:07:39;;;;;;;0.80;0.80;;;;;;;6.15;55.18;94768.28;4975018;28;20216;-86
2022/01/09 02:10:08;;;;;;;0.60;0.60;;;;;;;6.14;54.51;94764.81;4977997;28;20204;-86
2022/01/09 02:12:37;;;;;;;0.80;0.70;;;;;;;6.06;54.36;94763.31;4998494;28;20274;-86
2022/01/09 02:15:26;;;;;;;1.73;0.90;;;;;;;6.06;56.01;94800.84;4982479;28;20305;-86
2022/01/09 02:17:53;;;;;;;1.00;0.90;;;;;;;5.92;58.29;94766.56;4982057;28;20243;-86
2022/01/09 02:20:22;;;;;;;0.70;0.70;;;;;;;5.80;60.57;94763.88;4976654;28;20295;-86
2022/01/09 02:22:49;;;;;;;1.97;0.70;;;;;;;5.54;63.58;94751.84;4990503;28;20208;-85
2022/01/09 02:25:16;;;;;;;2.47;0.80;;;;;;;5.43;65.01;94751.91;4987582;28;20220;-86
2022/01/09 02:27:43;;;;;;;1.00;0.80;;;;;;;5.28;67.97;94765.78;4984740;28;20232;-87
2022/01/09 02:30:11;;;;;;;0.70;0.70;;;;;;;5.17;68.47;94755.94;4984178;28;20237;-86
2022/01/09 02:32:38;;;;;;;0.70;0.70;;;;;;;5.12;68.61;94767.31;4983719;28;20204;-87
2022/01/09 02:35:06;;;;;;;0.70;0.70;;;;;;;5.13;69.99;94784.19;4987227;28;20201;-87
2022/01/09 02:37:35;;;;;;;1.70;0.90;;;;;;;5.14;70.08;94785.81;4985806;28;20208;-86
2022/01/09 02:40:02;;;;;;;0.60;0.60;;;;;;;5.14;69.29;94800.00;4988050;28;20209;-86
2022/01/09 02:42:31;;;;;;;0.93;0.67;;;;;;;5.08;69.05;94811.66;4985407;28;20200;-86
2022/01/09 02:44:58;;;;;;;1.17;0.83;;;;;;;5.05;67.70;94817.47;4983605;28;20275;-87
2022/01/09 02:47:29;;;;;;;0.77;0.77;;;;;;;5.00;67.36;94800.50;4982705;28;20211;-87
2022/01/09 02:50:02;;;;;;;0.70;0.70;;;;;;;4.90;70.16;94812.59;4977513;28;20212;-86
2022/01/09 02:52:33;;;;;;;0.90;0.80;;;;;;;4.79;71.81;94826.75;4986118;28;20240;-87
2022/01/09 02:55:11;;;;;;;0.70;0.67;;;;;;;4.77;72.84;94825.34;4982454;28;20207;-87
2022/01/09 02:57:39;;;;;;;0.70;0.70;;;;;;;4.69;72.68;94815.00;4983766;28;20243;-88
2022/01/09 03:00:09;;;;;;;1.23;0.77;;;;;;;4.64;74.06;94817.56;4983812;28;20517;-86
2022/01/09 03:02:36;;;;;;;0.60;0.60;;;;;;;4.60;74.58;94805.69;4984964;28;20219;-87
2022/01/09 03:05:03;;;;;;;0.63;0.63;;;;;;;4.39;78.91;94810.53;4992600;28;20223;-87
2022/01/09 03:07:30;;;;;;;0.60;0.60;;;;;;;4.21;82.10;94815.13;4985184;28;20244;-87
2022/01/09 03:09:57;;;;;;;0.70;0.70;;;;;;;4.04;84.24;94839.81;4984726;28;20200;-87
2022/01/09 03:12:26;;;;;;;0.83;0.80;;;;;;;3.84;87.67;94857.94;4979629;28;20212;-86
2022/01/09 03:14:53;;;;;;;0.67;0.67;;;;;;;3.76;90.61;94868.94;4984146;28;20212;-87
2022/01/09 03:17:20;;;;;;;2.30;0.67;;;;;;;3.66;91.97;94876.66;4985090;28;20212;-86
2022/01/09 03:19:47;;;;;;;0.70;0.70;;;;;;;3.65;90.69;94883.88;4984633;28;20211;-86
2022/01/09 03:22:14;;;;;;;1.43;0.63;;;;;;;3.66;93.33;94906.81;4998000;28;20299;-87
2022/01/09 03:24:42;;;;;;;0.90;0.73;;;;;;;3.61;93.30;94898.69;4995658;28;20225;-86
2022/01/09 03:27:10;;;;;;;0.50;0.50;;;;;;;3.56;94.98;94922.56;4984333;28;20214;-86
2022/01/09 03:29:38;;;;;;;0.80;0.70;;;;;;;3.22;100.00;94952.44;4985964;28;20317;-86
2022/01/09 03:32:07;;;;;;;0.60;0.60;;;;;;;2.90;100.00;94947.16;4986077;28;20220;-86
2022/01/09 03:34:34;;;;;;;0.60;0.60;;;;;;;2.77;100.00;94936.59;4984189;28;20211;-86
2022/01/09 03:37:02;;;;;;;0.60;0.60;;;;;;;2.53;100.00;94908.09;4999473;28;20235;-85
2022/01/09 03:39:29;;;;;;;0.80;0.80;;;;;;;2.26;100.00;94934.88;4984104;28;20216;-86
2022/01/09 03:41:58;;;;;;;0.87;0.80;;;;;;;2.08;100.00;94933.94;4988322;28;20237;-86
2022/01/09 03:44:25;;;;;;;0.60;0.60;;;;;;;2.08;100.00;94923.28;4983829;28;20251;-85
2022/01/09 03:46:55;;;;;;;0.80;0.80;;;;;;;2.02;100.00;94945.44;4975648;28;20224;-85
2022/01/09 03:49:22;;;;;;;0.90;0.60;;;;;;;1.98;100.00;94941.56;4982812;28;20218;-85
2022/01/09 03:51:51;;;;;;;0.87;0.73;;;;;;;1.92;100.00;94911.28;4980732;28;20237;-85
2022/01/09 03:54:20;;;;;;;0.50;0.50;;;;;;;1.80;100.00;94921.78;4994104;28;20301;-85
2022/01/09 03:56:48;;;;;;;0.60;0.60;;;;;;;1.82;100.00;94941.00;4995233;28;20271;-85
2022/01/09 03:59:15;;;;;;;0.67;0.67;;;;;;;1.89;100.00;94947.13;4985203;28;20205;-86
2022/01/09 04:01:42;;;;;;;0.77;0.60;;;;;;;1.96;100.00;94954.28;4981088;28;20208;-86
2022/01/09 04:04:12;;;;;;;0.60;0.60;;;;;;;1.96;100.00;94946.31;4998902;28;20216;-87
2022/01/09 04:06:45;;;;;;;0.63;0.53;;;;;;;1.96;100.00;94928.44;4998060;28;20256;-87
2022/01/09 04:09:18;;;;;;;0.60;0.60;;;;;;;1.89;100.00;94917.03;4983086;28;20235;-87
2022/01/09 04:11:46;;;;;;;1.73;0.70;;;;;;;1.90;100.00;94930.13;4984522;28;20204;-88
2022/01/09 04:14:14;;;;;;;1.80;0.70;;;;;;;1.91;100.00;94930.94;4986634;28;20207;-87
2022/01/09 04:16:42;;;;;;;0.53;0.53;;;;;;;1.82;100.00;94927.72;4981464;28;20211;-88
2022/01/09 04:19:12;;;;;;;0.83;0.70;;;;;;;1.73;100.00;94912.19;4984281;28;20211;-88
2022/01/09 04:21:42;;;;;;;0.73;0.73;;;;;;;1.78;100.00;94931.00;4998092;28;20204;-89
2022/01/09 04:24:09;;;;;;;0.67;0.67;;;;;;;1.80;100.00;94926.28;4984362;28;20273;-87
2022/01/09 04:26:37;;;;;;;1.93;0.70;;;;;;;1.82;100.00;94932.22;5002029;28;20291;-88
2022/01/09 04:29:06;;;;;;;1.00;0.90;;;;;;;1.88;100.00;94939.34;4999977;28;20245;-88
2022/01/09 04:31:33;;;;;;;0.60;0.60;;;;;;;1.88;100.00;94934.03;4985791;28;20254;-88
2022/01/09 04:34:00;;;;;;;0.63;0.63;;;;;;;1.73;100.00;94899.69;4987267;28;20211;-87
2022/01/09 04:36:27;;;;;;;1.17;0.70;;;;;;;1.70;100.00;94900.09;4985740;28;20207;-88
2022/01/09 04:38:56;;;;;;;0.70;0.70;;;;;;;1.61;100.00;94927.19;4978499;28;20271;-88
2022/01/09 04:41:23;;;;;;;1.23;0.73;;;;;;;1.59;100.00;94947.84;4979380;28;20205;-88
2022/01/09 04:43:51;;;;;;;1.03;0.83;;;;;;;1.66;100.00;94969.94;4985144;28;20199;-88
2022/01/09 04:46:29;;;;;;;1.63;0.70;;;;;;;1.77;100.00;94958.66;4981369;28;20249;-88
2022/01/09 04:48:57;;;;;;;0.70;0.70;;;;;;;1.66;100.00;94951.31;4984831;28;20204;-88
2022/01/09 04:51:24;;;;;;;0.77;0.70;;;;;;;1.51;100.00;94970.16;4989970;28;20219;-88
2022/01/09 04:53:51;;;;;;;0.93;0.83;;;;;;;1.41;100.00;94977.75;4988386;28;20301;-88
2022/01/09 04:56:19;;;;;;;0.70;0.70;;;;;;;1.45;100.00;94986.94;4986052;28;20292;-88
2022/01/09 04:58:46;;;;;;;0.60;0.60;;;;;;;1.59;100.00;94977.09;4984852;28;20293;-87
2022/01/09 05:01:14;;;;;;;0.70;0.70;;;;;;;1.50;100.00;94976.50;4984469;28;20287;-88
2022/01/09 05:03:41;;;;;;;1.30;0.63;;;;;;;1.57;100.00;94984.47;5001335;28;20262;-87
2022/01/09 05:06:08;;;;;;;0.60;0.60;;;;;;;1.55;100.00;94991.84;4981548;28;20321;-89
2022/01/09 05:08:35;;;;;;;1.17;0.63;;;;;;;1.45;100.00;94986.94;4985181;28;20214;-88
2022/01/09 05:11:02;;;;;;;0.83;0.80;;;;;;;1.52;100.00;95004.56;4978043;28;20223;-88
2022/01/09 05:13:31;;;;;;;0.53;0.53;;;;;;;1.53;100.00;94982.22;4983825;28;20316;-89
2022/01/09 05:16:00;;;;;;;1.97;1.47;;;;;;;1.45;100.00;94998.41;4988114;28;20211;-89
2022/01/09 05:18:27;;;;;;;1.20;0.90;;;;;;;1.44;100.00;95001.28;4986721;28;20207;-89
2022/01/09 05:20:54;;;;;;;0.93;0.90;;;;;;;1.43;100.00;94995.16;4977369;28;20212;-90
2022/01/09 05:23:21;;;;;;;0.80;0.80;;;;;;;1.43;100.00;94994.34;4982772;28;20196;-88
2022/01/09 05:25:48;;;;;;;1.40;0.80;;;;;;;1.40;100.00;94989.41;4984013;28;20230;-88
2022/01/09 05:28:16;;;;;;;0.80;0.80;;;;;;;1.36;100.00;95009.47;4996793;28;20241;-89
2022/01/09 05:30:44;;;;;;;1.23;1.00;;;;;;;1.35;100.00;95015.81;4982555;28;20591;-89
2022/01/09 05:33:11;;;;;;;0.80;0.80;;;;;;;1.32;100.00;95009.06;4980932;28;20301;-90
2022/01/09 05:35:38;;;;;;;1.67;1.20;;;;;;;1.37;100.00;95022.53;4977981;28;20247;-89
2022/01/09 05:38:06;;;;;;;1.20;1.10;;;;;;;1.29;100.00;95020.09;5001885;28;20198;-88
2022/01/09 05:40:33;;;;;;;1.37;1.03;;;;;;;1.26;100.00;95009.06;4984306;28;20207;-89
2022/01/09 05:43:00;;;;;;;1.50;1.10;;;;;;;1.22;100.00;95018.47;4985064;28;20301;-89
2022/01/09 05:45:27;;;;;;;1.30;1.20;;;;;;;1.29;100.00;95011.31;4979720;28;20260;-90
2022/01/09 05:47:55;;;;;;;4.40;1.30;;;;;;;1.29;100.00;95006.81;4984501;28;20227;-89
2022/01/09 05:50:24;;;;;;;1.77;1.20;;;;;;;1.22;100.00;95003.34;4985310;28;20215;-89
2022/01/09 05:52:51;;;;;;;1.10;1.00;;;;;;;1.24;100.00;95027.88;4998187;28;20212;-89
2022/01/09 05:55:18;;;;;;;1.57;1.27;;;;;;;1.25;100.00;95020.72;4982219;28;20200;-89
2022/01/09 05:57:45;;;;;;;1.87;1.30;;;;;;;1.28;100.00;95015.78;4981497;28;20288;-89
2022/01/09 06:00:14;;;;;;;1.27;1.13;;;;;;;1.28;100.00;95009.66;5000341;28;20213;-89
2022/01/09 06:02:47;;;;;;;2.53;1.30;;;;;;;1.31;100.00;94995.97;4988920;28;20284;-90
2022/01/09 06:05:16;;;;;;;1.47;1.30;;;;;;;1.27;100.00;95000.91;4987096;28;20322;-89
2022/01/09 06:07:44;;;;;;;1.70;1.43;;;;;;;1.25;100.00;95016.22;4976444;28;20273;-90
2022/01/09 06:10:12;;;;;;;3.53;1.40;;;;;;;1.19;100.00;95017.06;4989744;28;20215;-90
2022/01/09 06:12:40;;;;;;;1.40;1.20;;;;;;;1.28;100.00;95022.94;4983582;28;20209;-90
2022/01/09 06:15:08;;;;;;;1.37;1.13;;;;;;;1.36;100.00;95017.47;5001957;28;20205;-89
2022/01/09 06:17:37;;;;;;;1.80;1.00;;;;;;;1.39;100.00;95017.84;4987963;28;20244;-89
2022/01/09 06:20:06;;;;;;;1.10;1.00;;;;;;;1.46;100.00;95015.16;4985922;28;20293;-90
2022/01/09 06:22:34;;;;;;;1.20;1.00;;;;;;;1.47;100.00;95030.94;4988394;28;20236;-89
2022/01/09 06:25:02;;;;;;;0.80;0.80;;;;;;;1.51;100.00;95040.16;5005023;28;20209;-89
2022/01/09 06:27:29;;;;;;;0.93;0.90;;;;;;;1.56;100.00;95052.00;4988139;28;20255;-89
2022/01/09 06:29:56;;;;;;;1.10;1.00;;;;;;;1.53;100.00;95054.03;4981089;28;20240;-89
2022/01/09 06:32:23;;;;;;;1.37;1.10;;;;;;;1.61;100.00;95076.16;5000246;28;20305;-89
2022/01/09 06:34:50;;;;;;;1.40;1.10;;;;;;;1.63;100.00;95079.41;4980854;28;20212;-89
2022/01/09 06:37:18;;;;;;;1.50;1.40;;;;;;;1.68;100.00;95088.44;4984998;28;20212;-89
2022/01/09 06:39:46;;;;;;;2.10;1.40;;;;;;;1.64;100.00;95097.00;4987239;28;20199;-89
2022/01/09 06:42:13;;;;;;;1.30;1.10;;;;;;;1.60;100.00;95101.94;4985120;28;20235;-89
2022/01/09 06:44:40;;;;;;;3.63;1.67;;;;;;;1.59;100.00;95102.97;5002343;28;20284;-89
2022/01/09 06:47:08;;;;;;;2.50;1.93;;;;;;;1.59;100.00;95108.28;4982436;28;20234;-89
2022/01/09 06:49:35;;;;;;;1.90;1.40;;;;;;;1.57;100.00;95106.84;4998151;28;20213;-89
2022/01/09 06:52:03;;;;;;;1.30;1.20;;;;;;;1.50;100.00;95099.69;4986967;28;20208;-89
2022/01/09 06:54:31;;;;;;;1.30;1.20;;;;;;;1.48;100.00;95101.72;4988257;28;20204;-89
2022/01/09 06:56:59;;;;;;;1.20;1.10;;;;;;;1.50;100.00;95094.38;4987931;28;20223;-90
2022/01/09 06:59:26;;;;;;;2.30;2.10;;;;;;;1.44;100.00;95111.16;4989582;28;20211;-90
2022/01/09 07:01:54;;;;;;;2.57;2.17;;;;;;;1.46;100.00;95116.25;4981413;28;20212;-90
2022/01/09 07:04:21;;;;;;;2.33;1.60;;;;;;;1.39;100.00;95115.44;4984685;28;20247;-89
2022/01/09 07:06:48;;;;;;;4.20;2.20;;;;;;;1.41;100.00;95124.84;4986209;28;20223;-90
2022/01/09 07:09:16;;;;;;;3.17;1.80;;;;;;;1.39;100.00;95134.03;5001752;28;20231;-90
2022/01/09 07:11:43;;;;;;;1.90;1.60;;;;;;;1.32;100.00;95136.69;4987932;28;20208;-89
2022/01/09 07:14:11;;;;;;;2.20;1.80;;;;;;;1.23;100.00;95137.91;4982674;28;20294;-89
2022/01/09 07:16:38;;;;;;;1.97;1.77;;;;;;;1.19;100.00;95131.38;4983451;28;20243;-89
2022/01/09 07:19:06;;;;;;;3.10;2.20;;;;;;;1.21;100.00;95121.34;4978655;28;20230;-90
2022/01/09 07:21:33;;;;;;;2.70;2.20;;;;;;;1.15;100.00;95119.50;4977858;28;20204;-90
2022/01/09 07:24:00;;;;;;;2.77;1.70;;;;;;;1.10;100.00;95129.94;4986027;28;20208;-90
2022/01/09 07:26:27;;;;;;;2.60;2.00;;;;;;;1.12;100.00;95138.50;4983393;28;20229;-89
2022/01/09 07:28:54;;;;;;;2.87;2.63;;;;;;;1.16;100.00;95137.09;4975151;28;20391;-89
2022/01/09 07:31:24;;;;;;;2.83;2.20;;;;;;;1.15;100.00;95132.78;5003486;28;20221;-92
2022/01/09 07:33:57;;;;;;;4.67;2.60;;;;;;;1.17;100.00;95133.41;4988240;28;20212;-89
2022/01/09 07:36:28;;;;;;;2.47;2.27;;;;;;;1.17;100.00;95144.03;5006914;28;20197;-93
2022/01/09 07:38:56;;;;;;;2.30;2.00;;;;;;;1.22;100.00;95146.09;4987969;28;20217;-92
2022/01/09 07:41:25;;;;;;;2.10;1.90;;;;;;;1.23;100.00;95156.53;4989107;28;20265;-93
2022/01/09 07:43:58;;;;;;;2.47;1.90;;;;;;;1.32;100.00;95152.66;4989230;28;20210;-93
2022/01/09 07:46:34;;;;;;;1.83;1.70;;;;;;;1.37;100.00;95168.81;4982906;28;20212;-93
2022/01/09 07:49:06;;;;;;;2.07;1.80;;;;;;;1.40;100.00;95176.41;4986113;28;20196;-93
2022/01/09 07:51:37;;;;;;;2.10;1.90;;;;;;;1.34;100.00;95181.72;4991227;28;20210;-92
2022/01/09 07:54:12;;;;;;;2.83;1.90;;;;;;;1.36;100.00;95193.75;4992444;28;20223;-93
2022/01/09 07:56:43;;;;;;;2.60;1.80;;;;;;;1.44;100.00;95195.44;4992504;28;20214;-93
2022/01/09 07:59:14;;;;;;;3.17;1.50;;;;;;;1.48;100.00;95208.13;4992756;28;20239;-93
2022/01/09 08:01:46;;;;;;;2.10;1.77;;;;;;;1.50;100.00;95206.09;4985214;28;20192;-93
2022/01/09 08:04:14;;;;;;;8.23;5.60;;;;;;;1.50;100.00;95219.38;4994060;28;20274;-93
2022/01/09 08:06:48;;;;;;;12.67;8.53;;;;;;;1.54;100.00;95219.78;4989383;28;20247;-92
2022/01/09 08:09:36;;;;;;;2.87;2.03;;;;;;;1.58;100.00;95210.41;5001611;28;20234;-93
2022/01/09 08:12:15;;;;;;;3.20;2.30;;;;;;;1.60;100.00;95219.00;5002923;28;20223;-93
2022/01/09 08:14:43;;;;;;;9.30;5.90;;;;;;;1.63;100.00;95231.06;4991042;28;20306;-93
2022/01/09 08:17:20;;;;;;;9.27;6.50;;;;;;;1.56;100.00;95219.59;4989625;28;20213;-93
2022/01/09 08:19:52;;;;;;;5.93;3.93;;;;;;;1.59;100.00;95232.50;4993383;28;20211;-93
2022/01/09 08:22:29;;;;;;;4.70;3.10;;;;;;;1.60;100.00;95218.19;4993497;28;20204;-92
2022/01/09 08:24:57;;;;;;;3.03;2.50;;;;;;;1.59;100.00;95216.53;4991809;28;20212;-93
2022/01/09 08:27:26;;;;;;;4.20;2.60;;;;;;;1.60;100.00;95208.34;4991466;28;20223;-93
2022/01/09 08:29:53;;;;;;;3.20;2.73;;;;;;;1.60;100.00;95212.84;5000914;28;20245;-93
2022/01/09 08:32:23;;;;;;;4.33;2.50;;;;;;;1.56;100.00;95223.06;4981325;28;20275;-92
2022/01/09 08:34:54;;;;;;;3.17;2.80;;;;;;;1.74;100.00;95211.84;4980270;28;20235;-92
2022/01/09 08:37:21;;;;;;;2.43;2.23;;;;;;;1.69;100.00;95204.47;4974125;28;20211;-92
2022/01/09 08:39:49;;;;;;;2.73;2.30;;;;;;;1.70;100.00;95203.44;4986070;28;20204;-94
2022/01/09 08:42:17;;;;;;;2.80;2.27;;;;;;;1.80;100.00;95203.84;4985178;28;20223;-93
2022/01/09 08:44:44;;;;;;;3.57;2.37;;;;;;;1.77;100.00;95198.97;4980569;28;20269;-92
2022/01/09 08:47:11;;;;;;;2.67;2.30;;;;;;;1.82;100.00;95201.81;4985820;28;20266;-91
2022/01/09 08:49:40;;;;;;;3.10;2.47;;;;;;;1.92;100.00;95206.75;4986661;28;20225;-92
2022/01/09 08:52:10;;;;;;;3.13;2.57;;;;;;;1.94;100.00;95196.72;4984163;28;20215;-93
2022/01/09 08:54:37;;;;;;;2.80;2.43;;;;;;;1.96;100.00;95193.84;4977979;28;20412;-92
2022/01/09 08:57:06;;;;;;;4.43;2.50;;;;;;;1.92;100.00;95196.09;4983427;28;20211;-93
2022/01/09 08:59:34;;;;;;;3.33;2.63;;;;;;;1.98;100.00;95199.75;4990250;28;20238;-93
2022/01/09 09:02:02;;;;;;;5.73;2.27;;;;;;;2.04;100.00;95202.41;4995673;28;20218;-92
2022/01/09 09:04:31;;;;;;;2.67;2.20;;;;;;;2.11;100.00;95203.25;4987188;28;20246;-92
2022/01/09 09:07:03;;;;;;;4.23;2.47;;;;;;;2.18;100.00;95206.75;4987038;28;20228;-93
2022/01/09 09:09:39;;;;;;;3.53;2.63;;;;;;;2.27;100.00;95216.16;4980803;28;20227;-92
2022/01/09 09:12:11;;;;;;;4.43;2.83;;;;;;;2.20;100.00;95218.00;4988086;28;20234;-93
2022/01/09 09:14:48;;;;;;;3.73;2.90;;;;;;;2.21;100.00;95227.59;4998738;28;20223;-93
2022/01/09 09:17:20;;;;;;;4.90;2.80;;;;;;;2.26;100.00;95225.16;4992040;28;20213;-93
2022/01/09 09:19:47;;;;;;;3.80;3.10;;;;;;;2.31;100.00;95231.69;4989516;28;20223;-93
2022/01/09 09:22:16;;;;;;;4.73;3.33;;;;;;;2.27;100.00;95226.00;4993804;28;20293;-92
2022/01/09 09:24:44;;;;;;;3.90;3.00;;;;;;;2.28;100.00;95228.44;4988255;28;20232;-93
2022/01/09 09:27:11;;;;;;;3.80;3.07;;;;;;;2.24;100.00;95221.88;4986740;28;20228;-93
2022/01/09 09:29:39;;;;;;;5.00;3.60;;;;;;;2.28;100.00;95222.31;4990792;28;20243;-93
2022/01/09 09:32:08;;;;;;;6.27;4.17;;;;;;;2.21;100.00;95224.94;4988612;28;20219;-92
2022/01/09 09:34:35;;;;;;;8.40;4.53;;;;;;;2.21;100.00;95219.63;4987636;28;20216;-93
2022/01/09 09:37:04;;;;;;;9.50;5.17;;;;;;;2.21;100.00;95224.94;4989406;28;20258;-94
2022/01/09 09:39:33;;;;;;;7.07;4.33;;;;;;;2.27;100.00;95226.81;4985148;28;20250;-92
2022/01/09 09:42:01;;;;;;;7.30;4.50;;;;;;;2.27;100.00;95221.47;4987382;28;20207;-92
2022/01/09 09:44:29;;;;;;;5.87;3.47;;;;;;;2.37;100.00;95225.56;4982230;28;20238;-92
2022/01/09 09:46:56;;;;;;;4.57;3.20;;;;;;;2.42;100.00;95221.25;4985270;28;20272;-92
2022/01/09 09:49:24;;;;;;;4.70;3.30;;;;;;;2.44;100.00;95210.41;4982796;28;20208;-92
2022/01/09 09:51:51;;;;;;;3.70;2.80;;;;;;;2.60;100.00;95212.59;4983659;28;20200;-91
2022/01/09 09:54:18;;;;;;;3.47;2.53;;;;;;;2.66;100.00;95190.44;4991017;28;20217;-91
2022/01/09 09:56:47;;;;;;;4.93;3.37;;;;;;;2.86;100.00;95191.22;4981762;28;20231;-91
2022/01/09 09:59:23;;;;;;;6.03;3.20;;;;;;;2.92;100.00;95198.38;4980099;28;20236;-91
2022/01/09 10:01:51;;;;;;;3.53;2.50;;;;;;;2.92;100.00;95195.69;4995594;28;20325;-91
2022/01/09 10:04:18;;;;;;;5.30;3.30;;;;;;;2.99;100.00;95199.16;4982649;28;20215;-92
2022/01/09 10:06:48;;;;;;;2.93;2.40;;;;;;;2.94;100.00;95193.66;4979311;28;20224;-92
2022/01/09 10:09:18;;;;;;;4.03;2.43;;;;;;;2.95;100.00;95199.78;4971030;28;20220;-91
2022/01/09 10:11:51;;;;;;;4.00;2.60;;;;;;;2.92;100.00;95202.88;4977953;28;20209;-92
2022/01/09 10:14:22;;;;;;;3.23;2.20;;;;;;;2.94;100.00;95198.16;4997584;28;20222;-91
2022/01/09 10:17:13;;;;;;;2.30;2.00;;;;;;;3.01;100.00;95210.44;4984043;28;20200;-90
2022/01/09 10:19:49;;;;;;;3.27;2.33;;;;;;;3.06;100.00;95209.00;4974398;28;20216;-90
2022/01/09 10:22:36;;;;;;;3.33;2.10;;;;;;;3.07;100.00;95210.59;4981391;28;20231;-92
2022/01/09 10:25:26;;;;;;;2.07;1.57;;;;;;;3.16;100.00;95209.34;4979479;28;20216;-91
2022/01/09 10:28:01;;;;;;;1.50;1.30;;;;;;;3.20;100.00;95205.22;4976694;28;20254;-92
2022/01/09 10:30:30;;;;;;;2.57;1.53;;;;;;;3.29;100.00;95211.97;4975178;28;20219;-91
2022/01/09 10:32:59;;;;;;;3.03;1.90;;;;;;;3.35;100.00;95198.56;4982559;28;20295;-91
2022/01/09 10:35:27;;;;;;;3.90;2.00;;;;;;;3.42;100.00;95195.88;4978643;28;20267;-91
2022/01/09 10:38:13;;;;;;;3.07;2.03;;;;;;;3.47;100.00;95185.38;4983658;28;20201;-92
2022/01/09 10:40:43;;;;;;;2.93;2.00;;;;;;;3.45;100.00;95192.78;4983514;28;20216;-92
2022/01/09 10:43:16;;;;;;;3.17;2.00;;;;;;;3.45;100.00;95195.44;4985022;28;20208;-91
2022/01/09 10:45:46;;;;;;;2.90;1.80;;;;;;;3.49;100.00;95203.84;4985944;28;20216;-92
2022/01/09 10:48:18;;;;;;;4.33;2.67;;;;;;;3.38;100.00;95190.16;4982360;28;20433;-91
2022/01/09 10:50:46;;;;;;;3.90;2.00;;;;;;;3.40;100.00;95190.75;4983890;28;20303;-91
2022/01/09 10:53:23;;;;;;;3.20;1.70;;;;;;;3.42;100.00;95203.88;4983710;28;20299;-92
2022/01/09 10:56:03;;;;;;;5.23;1.70;;;;;;;3.47;100.00;95201.41;4987938;28;20239;-92
2022/01/09 10:58:34;;;;;;;3.20;1.60;;;;;;;3.48;100.00;95205.72;4985903;28;20209;-92
2022/01/09 11:01:24;;;;;;;2.57;1.60;;;;;;;3.48;100.00;95208.38;4999014;28;20311;-91
2022/01/09 11:03:53;;;;;;;2.87;2.43;;;;;;;3.51;100.00;95201.78;4988506;28;20216;-92
2022/01/09 11:06:22;;;;;;;3.67;3.20;;;;;;;3.54;100.00;95194.16;4983029;28;20212;-92
2022/01/09 11:08:50;;;;;;;3.40;2.50;;;;;;;3.51;100.00;95180.41;4989869;28;20493;-91
2022/01/09 11:11:27;;;;;;;2.00;1.80;;;;;;;3.48;100.00;95186.22;4980391;28;20216;-91
2022/01/09 11:13:57;;;;;;;3.80;2.20;;;;;;;3.48;100.00;95189.69;5009096;28;20200;-92
2022/01/09 11:16:36;;;;;;;3.13;2.20;;;;;;;3.50;100.00;95182.28;4980493;28;20205;-93
2022/01/09 11:19:11;;;;;;;3.23;2.30;;;;;;;3.56;100.00;95192.09;5003817;28;20204;-93
2022/01/09 11:21:41;;;;;;;5.37;3.50;;;;;;;3.58;100.00;95182.00;4987820;28;20208;-91
2022/01/09 11:24:55;;;;;;;6.63;4.17;;;;;;;3.69;100.00;95192.00;4983601;28;20205;-91
2022/01/09 11:27:34;;;;;;;1.13;1.03;;;;;;;3.67;100.00;95195.91;4895185;29;20377;-92
2022/01/09 11:30:07;;;;;;;1.53;1.10;;;;;;;3.65;100.00;95200.69;4998174;28;20328;-92
2022/01/09 11:32:48;;;;;;;2.50;1.20;;;;;;;3.69;100.00;95201.88;5000053;28;20338;-91
2022/01/09 11:35:26;;;;;;;2.70;1.50;;;;;;;3.71;100.00;95199.81;4981565;28;20222;-90
2022/01/09 11:38:05;;;;;;;3.87;1.80;;;;;;;3.73;100.00;95195.91;4985682;28;20206;-91
2022/01/09 11:40:34;;;;;;;2.73;1.33;;;;;;;3.69;100.00;95210.69;5003230;28;20242;-91
2022/01/09 11:43:09;;;;;;;1.40;1.23;;;;;;;3.65;100.00;95204.16;4986627;28;20473;-92
2022/01/09 11:45:49;;;;;;;1.37;1.27;;;;;;;3.66;100.00;95203.09;4984325;28;20211;-90
2022/01/09 11:48:19;;;;;;;2.57;1.70;;;;;;;3.69;100.00;95204.53;4980408;28;20224;-91